sensor_id;sensor_type;location;lat;lon;timestamp;temperature;humidity
22968;DHT22;11650;48.106;-1.696;2023-06-22T00:01:58;19.60;99.90
22968;DHT22;11650;48.106;-1.696;2023-06-22T00:04:24;19.60;99.90
22968;DHT22;11650;48.106;-1.696;2023-06-22T00:06:49;19.60;99.90
22968;DHT22;11650;48.106;-1.696;2023-06-22T00:09:15;19.70;99.90
22968;DHT22;11650;48.106;-1.696;2023-06-22T00:11:41;19.70;99.90
22968;DHT22;11650;48.106;-1.696;2023-06-22T00:14:06;19.60;99.90
22968;DHT22;11650;48.106;-1.696;2023-06-22T00:16:32;19.50;99.90
22968;DHT22;11650;48.106;-1.696;2023-06-22T00:18:58;19.60;99.90
22968;DHT22;11650;48.106;-1.696;2023-06-22T00:21:29;19.50;99.90
22968;DHT22;11650;48.106;-1.696;2023-06-22T00:23:54;19.50;99.90
22968;DHT22;11650;48.106;-1.696;2023-06-22T00:26:21;19.50;99.90
22968;DHT22;11650;48.106;-1.696;2023-06-22T00:28:47;19.60;99.90
22968;DHT22;11650;48.106;-1.696;2023-06-22T00:31:13;19.50;99.90
22968;DHT22;11650;48.106;-1.696;2023-06-22T00:33:38;19.40;99.90
22968;DHT22;11650;48.106;-1.696;2023-06-22T00:36:05;19.40;99.90
22968;DHT22;11650;48.106;-1.696;2023-06-22T00:38:31;19.40;99.90
22968;DHT22;11650;48.106;-1.696;2023-06-22T00:40:57;19.30;99.90
22968;DHT22;11650;48.106;-1.696;2023-06-22T00:43:22;19.30;99.90
22968;DHT22;11650;48.106;-1.696;2023-06-22T00:45:48;19.20;99.90
22968;DHT22;11650;48.106;-1.696;2023-06-22T00:48:14;19.20;99.90
22968;DHT22;11650;48.106;-1.696;2023-06-22T00:50:40;19.20;99.90
22968;DHT22;11650;48.106;-1.696;2023-06-22T00:53:08;19.10;99.90
22968;DHT22;11650;48.106;-1.696;2023-06-22T00:55:41;19.20;99.90
22968;DHT22;11650;48.106;-1.696;2023-06-22T00:58:09;19.30;99.90
22968;DHT22;11650;48.106;-1.696;2023-06-22T01:00:36;19.20;99.90
22968;DHT22;11650;48.106;-1.696;2023-06-22T01:03:03;19.20;99.90
22968;DHT22;11650;48.106;-1.696;2023-06-22T01:05:29;19.20;99.90
22968;DHT22;11650;48.106;-1.696;2023-06-22T01:08:22;19.30;99.90
22968;DHT22;11650;48.106;-1.696;2023-06-22T01:11:16;19.20;99.90
22968;DHT22;11650;48.106;-1.696;2023-06-22T01:14:07;19.20;99.90
22968;DHT22;11650;48.106;-1.696;2023-06-22T01:16:39;19.20;99.90
22968;DHT22;11650;48.106;-1.696;2023-06-22T01:19:28;19.20;99.90
22968;DHT22;11650;48.106;-1.696;2023-06-22T01:21:56;19.20;99.90
22968;DHT22;11650;48.106;-1.696;2023-06-22T01:24:33;19.20;99.90
22968;DHT22;11650;48.106;-1.696;2023-06-22T01:27:33;19.30;99.90
22968;DHT22;11650;48.106;-1.696;2023-06-22T01:30:02;19.30;99.90
22968;DHT22;11650;48.106;-1.696;2023-06-22T01:32:33;19.30;99.90
22968;DHT22;11650;48.106;-1.696;2023-06-22T01:35:00;19.30;99.90
22968;DHT22;11650;48.106;-1.696;2023-06-22T01:37:28;19.30;99.90
22968;DHT22;11650;48.106;-1.696;2023-06-22T01:39:55;19.10;99.90
22968;DHT22;11650;48.106;-1.696;2023-06-22T01:42:24;19.10;99.90
22968;DHT22;11650;48.106;-1.696;2023-06-22T01:44:50;19.10;99.90
22968;DHT22;11650;48.106;-1.696;2023-06-22T01:47:17;19.10;99.90
22968;DHT22;11650;48.106;-1.696;2023-06-22T01:49:43;19.10;99.90
22968;DHT22;11650;48.106;-1.696;2023-06-22T01:52:09;19.00;99.90
22968;DHT22;11650;48.106;-1.696;2023-06-22T01:54:36;19.10;99.90
22968;DHT22;11650;48.106;-1.696;2023-06-22T01:57:02;19.00;99.90
22968;DHT22;11650;48.106;-1.696;2023-06-22T01:59:39;19.10;99.90
22968;DHT22;11650;48.106;-1.696;2023-06-22T02:02:11;19.10;99.90
22968;DHT22;11650;48.106;-1.696;2023-06-22T02:04:47;19.10;99.90
22968;DHT22;11650;48.106;-1.696;2023-06-22T02:07:15;19.10;99.90
22968;DHT22;11650;48.106;-1.696;2023-06-22T02:09:44;19.10;99.90
22968;DHT22;11650;48.106;-1.696;2023-06-22T02:12:13;19.10;99.90
22968;DHT22;11650;48.106;-1.696;2023-06-22T02:14:39;19.10;99.90
22968;DHT22;11650;48.106;-1.696;2023-06-22T02:17:07;19.10;99.90
22968;DHT22;11650;48.106;-1.696;2023-06-22T02:19:36;19.00;99.90
22968;DHT22;11650;48.106;-1.696;2023-06-22T02:22:02;19.10;99.90
22968;DHT22;11650;48.106;-1.696;2023-06-22T02:24:28;19.10;99.90
22968;DHT22;11650;48.106;-1.696;2023-06-22T02:26:57;19.10;99.90
22968;DHT22;11650;48.106;-1.696;2023-06-22T02:29:23;19.10;99.90
22968;DHT22;11650;48.106;-1.696;2023-06-22T02:31:49;19.10;99.90
22968;DHT22;11650;48.106;-1.696;2023-06-22T02:34:14;19.00;99.90
22968;DHT22;11650;48.106;-1.696;2023-06-22T02:36:45;19.00;99.90
22968;DHT22;11650;48.106;-1.696;2023-06-22T02:39:20;19.00;99.90
22968;DHT22;11650;48.106;-1.696;2023-06-22T02:41:50;19.00;99.90
22968;DHT22;11650;48.106;-1.696;2023-06-22T02:44:17;19.00;99.90
22968;DHT22;11650;48.106;-1.696;2023-06-22T02:46:43;18.90;99.90
22968;DHT22;11650;48.106;-1.696;2023-06-22T02:49:10;19.00;99.90
22968;DHT22;11650;48.106;-1.696;2023-06-22T02:51:42;19.00;99.90
22968;DHT22;11650;48.106;-1.696;2023-06-22T02:54:08;19.00;99.90
22968;DHT22;11650;48.106;-1.696;2023-06-22T02:56:33;19.00;99.90
22968;DHT22;11650;48.106;-1.696;2023-06-22T02:58:59;19.00;99.90
22968;DHT22;11650;48.106;-1.696;2023-06-22T03:01:27;18.90;99.90
22968;DHT22;11650;48.106;-1.696;2023-06-22T03:03:53;18.90;99.90
22968;DHT22;11650;48.106;-1.696;2023-06-22T03:06:20;18.80;99.90
22968;DHT22;11650;48.106;-1.696;2023-06-22T03:08:49;18.90;99.90
22968;DHT22;11650;48.106;-1.696;2023-06-22T03:11:15;18.80;99.90
22968;DHT22;11650;48.106;-1.696;2023-06-22T03:13:41;18.80;99.90
22968;DHT22;11650;48.106;-1.696;2023-06-22T03:16:07;18.80;99.90
22968;DHT22;11650;48.106;-1.696;2023-06-22T03:18:32;18.70;99.90
22968;DHT22;11650;48.106;-1.696;2023-06-22T03:20:58;18.70;99.90
22968;DHT22;11650;48.106;-1.696;2023-06-22T03:23:24;18.70;99.90
22968;DHT22;11650;48.106;-1.696;2023-06-22T03:25:49;18.70;99.90
22968;DHT22;11650;48.106;-1.696;2023-06-22T03:28:15;18.60;99.90
22968;DHT22;11650;48.106;-1.696;2023-06-22T03:30:41;18.60;99.90
22968;DHT22;11650;48.106;-1.696;2023-06-22T03:33:07;18.60;99.90
22968;DHT22;11650;48.106;-1.696;2023-06-22T03:35:32;18.60;99.90
22968;DHT22;11650;48.106;-1.696;2023-06-22T03:37:58;18.60;99.90
22968;DHT22;11650;48.106;-1.696;2023-06-22T03:40:24;18.60;99.90
22968;DHT22;11650;48.106;-1.696;2023-06-22T03:42:49;18.60;99.90
22968;DHT22;11650;48.106;-1.696;2023-06-22T03:45:15;18.50;99.90
22968;DHT22;11650;48.106;-1.696;2023-06-22T03:47:41;18.50;99.90
22968;DHT22;11650;48.106;-1.696;2023-06-22T03:50:07;18.50;99.90
22968;DHT22;11650;48.106;-1.696;2023-06-22T03:52:33;18.40;99.90
22968;DHT22;11650;48.106;-1.696;2023-06-22T03:54:58;18.40;99.90
22968;DHT22;11650;48.106;-1.696;2023-06-22T03:57:24;18.40;99.90
22968;DHT22;11650;48.106;-1.696;2023-06-22T03:59:50;18.50;99.90
22968;DHT22;11650;48.106;-1.696;2023-06-22T04:02:15;18.40;99.90
22968;DHT22;11650;48.106;-1.696;2023-06-22T04:04:41;18.40;99.90
22968;DHT22;11650;48.106;-1.696;2023-06-22T04:07:07;18.30;99.90
22968;DHT22;11650;48.106;-1.696;2023-06-22T04:09:33;18.30;99.90
22968;DHT22;11650;48.106;-1.696;2023-06-22T04:11:58;18.20;99.90
22968;DHT22;11650;48.106;-1.696;2023-06-22T04:14:24;18.30;99.90
22968;DHT22;11650;48.106;-1.696;2023-06-22T04:16:50;18.30;99.90
22968;DHT22;11650;48.106;-1.696;2023-06-22T04:19:15;18.20;99.90
22968;DHT22;11650;48.106;-1.696;2023-06-22T04:21:43;18.30;99.90
22968;DHT22;11650;48.106;-1.696;2023-06-22T04:24:10;18.30;99.90
22968;DHT22;11650;48.106;-1.696;2023-06-22T04:26:36;18.40;99.90
22968;DHT22;11650;48.106;-1.696;2023-06-22T04:29:05;18.30;99.90
22968;DHT22;11650;48.106;-1.696;2023-06-22T04:31:32;18.30;99.90
22968;DHT22;11650;48.106;-1.696;2023-06-22T04:34:02;18.40;99.90
22968;DHT22;11650;48.106;-1.696;2023-06-22T04:36:36;18.30;99.90
22968;DHT22;11650;48.106;-1.696;2023-06-22T04:39:07;18.40;99.90
22968;DHT22;11650;48.106;-1.696;2023-06-22T04:41:38;18.30;99.90
22968;DHT22;11650;48.106;-1.696;2023-06-22T04:44:17;18.40;99.90
22968;DHT22;11650;48.106;-1.696;2023-06-22T04:46:54;18.40;99.90
22968;DHT22;11650;48.106;-1.696;2023-06-22T04:49:25;18.40;99.90
22968;DHT22;11650;48.106;-1.696;2023-06-22T04:52:01;18.40;99.90
22968;DHT22;11650;48.106;-1.696;2023-06-22T04:54:27;18.40;99.90
22968;DHT22;11650;48.106;-1.696;2023-06-22T04:56:52;18.40;99.90
22968;DHT22;11650;48.106;-1.696;2023-06-22T04:59:28;18.30;99.90
22968;DHT22;11650;48.106;-1.696;2023-06-22T05:01:59;18.30;99.90
22968;DHT22;11650;48.106;-1.696;2023-06-22T05:04:26;18.30;99.90
22968;DHT22;11650;48.106;-1.696;2023-06-22T05:06:53;18.30;99.90
22968;DHT22;11650;48.106;-1.696;2023-06-22T05:09:20;18.30;99.90
22968;DHT22;11650;48.106;-1.696;2023-06-22T05:11:46;18.30;99.90
22968;DHT22;11650;48.106;-1.696;2023-06-22T05:14:12;18.40;99.90
22968;DHT22;11650;48.106;-1.696;2023-06-22T05:16:40;18.30;99.90
22968;DHT22;11650;48.106;-1.696;2023-06-22T05:19:06;18.40;99.90
22968;DHT22;11650;48.106;-1.696;2023-06-22T05:21:32;18.40;99.90
22968;DHT22;11650;48.106;-1.696;2023-06-22T05:23:58;18.40;99.90
22968;DHT22;11650;48.106;-1.696;2023-06-22T05:26:28;18.40;99.90
22968;DHT22;11650;48.106;-1.696;2023-06-22T05:28:55;18.50;99.90
22968;DHT22;11650;48.106;-1.696;2023-06-22T05:31:21;18.50;99.90
22968;DHT22;11650;48.106;-1.696;2023-06-22T05:33:47;18.60;99.90
22968;DHT22;11650;48.106;-1.696;2023-06-22T05:36:13;18.60;99.90
22968;DHT22;11650;48.106;-1.696;2023-06-22T05:38:40;18.60;99.90
22968;DHT22;11650;48.106;-1.696;2023-06-22T05:41:06;18.70;99.90
22968;DHT22;11650;48.106;-1.696;2023-06-22T05:43:32;18.80;99.90
22968;DHT22;11650;48.106;-1.696;2023-06-22T05:45:59;18.90;99.90
22968;DHT22;11650;48.106;-1.696;2023-06-22T05:48:25;18.90;99.90
22968;DHT22;11650;48.106;-1.696;2023-06-22T05:50:50;19.00;99.90
22968;DHT22;11650;48.106;-1.696;2023-06-22T05:53:16;19.10;99.90
22968;DHT22;11650;48.106;-1.696;2023-06-22T05:55:42;19.10;99.90
22968;DHT22;11650;48.106;-1.696;2023-06-22T05:58:08;19.20;99.90
22968;DHT22;11650;48.106;-1.696;2023-06-22T06:00:34;19.20;99.90
22968;DHT22;11650;48.106;-1.696;2023-06-22T06:03:00;19.10;99.90
22968;DHT22;11650;48.106;-1.696;2023-06-22T06:05:30;19.00;99.90
22968;DHT22;11650;48.106;-1.696;2023-06-22T06:07:55;19.20;99.90
22968;DHT22;11650;48.106;-1.696;2023-06-22T06:10:21;19.30;99.90
22968;DHT22;11650;48.106;-1.696;2023-06-22T06:12:47;19.40;99.90
22968;DHT22;11650;48.106;-1.696;2023-06-22T06:15:13;19.40;99.90
22968;DHT22;11650;48.106;-1.696;2023-06-22T06:17:47;19.40;99.90
22968;DHT22;11650;48.106;-1.696;2023-06-22T06:20:14;19.50;99.90
22968;DHT22;11650;48.106;-1.696;2023-06-22T06:22:39;19.50;99.90
22968;DHT22;11650;48.106;-1.696;2023-06-22T06:25:05;19.60;99.90
22968;DHT22;11650;48.106;-1.696;2023-06-22T06:27:31;19.70;99.90
22968;DHT22;11650;48.106;-1.696;2023-06-22T06:29:57;19.70;99.90
22968;DHT22;11650;48.106;-1.696;2023-06-22T06:32:22;19.80;99.90
22968;DHT22;11650;48.106;-1.696;2023-06-22T06:34:48;19.90;99.90
22968;DHT22;11650;48.106;-1.696;2023-06-22T06:37:14;20.00;99.90
22968;DHT22;11650;48.106;-1.696;2023-06-22T06:39:40;20.10;99.90
22968;DHT22;11650;48.106;-1.696;2023-06-22T06:42:06;20.10;99.90
22968;DHT22;11650;48.106;-1.696;2023-06-22T06:44:32;20.00;99.90
22968;DHT22;11650;48.106;-1.696;2023-06-22T06:46:57;20.00;99.90
22968;DHT22;11650;48.106;-1.696;2023-06-22T06:49:23;20.00;99.90
22968;DHT22;11650;48.106;-1.696;2023-06-22T06:51:49;20.10;99.90
22968;DHT22;11650;48.106;-1.696;2023-06-22T06:54:15;20.20;99.90
22968;DHT22;11650;48.106;-1.696;2023-06-22T06:56:41;20.20;99.90
22968;DHT22;11650;48.106;-1.696;2023-06-22T06:59:10;20.20;99.90
22968;DHT22;11650;48.106;-1.696;2023-06-22T07:01:35;20.30;99.90
22968;DHT22;11650;48.106;-1.696;2023-06-22T07:04:01;20.40;99.90
22968;DHT22;11650;48.106;-1.696;2023-06-22T07:06:28;20.60;99.90
22968;DHT22;11650;48.106;-1.696;2023-06-22T07:08:57;20.70;99.90
22968;DHT22;11650;48.106;-1.696;2023-06-22T07:11:23;20.70;99.90
22968;DHT22;11650;48.106;-1.696;2023-06-22T07:13:48;20.60;99.90
22968;DHT22;11650;48.106;-1.696;2023-06-22T07:16:14;20.50;99.90
22968;DHT22;11650;48.106;-1.696;2023-06-22T07:18:40;20.60;99.90
22968;DHT22;11650;48.106;-1.696;2023-06-22T07:21:05;20.60;99.90
22968;DHT22;11650;48.106;-1.696;2023-06-22T07:23:32;20.80;99.90
22968;DHT22;11650;48.106;-1.696;2023-06-22T07:25:58;20.80;99.90
22968;DHT22;11650;48.106;-1.696;2023-06-22T07:28:27;20.90;99.90
22968;DHT22;11650;48.106;-1.696;2023-06-22T07:30:53;20.90;99.90
22968;DHT22;11650;48.106;-1.696;2023-06-22T07:33:18;21.10;99.90
22968;DHT22;11650;48.106;-1.696;2023-06-22T07:35:45;21.10;99.90
22968;DHT22;11650;48.106;-1.696;2023-06-22T07:38:12;21.20;99.90
22968;DHT22;11650;48.106;-1.696;2023-06-22T07:40:37;21.20;99.90
22968;DHT22;11650;48.106;-1.696;2023-06-22T07:43:03;21.20;99.90
22968;DHT22;11650;48.106;-1.696;2023-06-22T07:45:29;21.20;99.90
22968;DHT22;11650;48.106;-1.696;2023-06-22T07:47:55;21.20;99.90
22968;DHT22;11650;48.106;-1.696;2023-06-22T07:50:21;21.20;99.90
22968;DHT22;11650;48.106;-1.696;2023-06-22T07:52:47;21.30;99.90
22968;DHT22;11650;48.106;-1.696;2023-06-22T07:55:13;21.50;99.90
22968;DHT22;11650;48.106;-1.696;2023-06-22T07:57:39;21.60;99.90
22968;DHT22;11650;48.106;-1.696;2023-06-22T08:00:07;21.80;99.90
22968;DHT22;11650;48.106;-1.696;2023-06-22T08:02:40;22.00;99.90
22968;DHT22;11650;48.106;-1.696;2023-06-22T08:05:07;22.00;99.90
22968;DHT22;11650;48.106;-1.696;2023-06-22T08:07:34;21.90;99.90
22968;DHT22;11650;48.106;-1.696;2023-06-22T08:10:03;21.80;99.90
22968;DHT22;11650;48.106;-1.696;2023-06-22T08:12:29;21.90;99.90
22968;DHT22;11650;48.106;-1.696;2023-06-22T08:14:54;21.90;99.90
22968;DHT22;11650;48.106;-1.696;2023-06-22T08:17:20;21.80;99.90
22968;DHT22;11650;48.106;-1.696;2023-06-22T08:19:46;21.80;99.90
22968;DHT22;11650;48.106;-1.696;2023-06-22T08:22:11;21.70;99.90
22968;DHT22;11650;48.106;-1.696;2023-06-22T08:24:37;21.70;99.90
22968;DHT22;11650;48.106;-1.696;2023-06-22T08:27:03;21.70;99.90
22968;DHT22;11650;48.106;-1.696;2023-06-22T08:29:28;21.70;99.90
22968;DHT22;11650;48.106;-1.696;2023-06-22T08:31:54;21.90;99.90
22968;DHT22;11650;48.106;-1.696;2023-06-22T08:34:20;21.90;99.90
22968;DHT22;11650;48.106;-1.696;2023-06-22T08:36:48;22.10;99.90
22968;DHT22;11650;48.106;-1.696;2023-06-22T08:39:17;22.20;99.90
22968;DHT22;11650;48.106;-1.696;2023-06-22T08:41:43;22.40;99.90
22968;DHT22;11650;48.106;-1.696;2023-06-22T08:44:08;22.60;99.90
22968;DHT22;11650;48.106;-1.696;2023-06-22T08:46:34;22.90;99.90
22968;DHT22;11650;48.106;-1.696;2023-06-22T08:49:00;22.70;99.90
22968;DHT22;11650;48.106;-1.696;2023-06-22T08:51:26;22.50;99.90
22968;DHT22;11650;48.106;-1.696;2023-06-22T08:53:52;22.50;99.90
22968;DHT22;11650;48.106;-1.696;2023-06-22T08:56:17;22.50;99.90
22968;DHT22;11650;48.106;-1.696;2023-06-22T08:58:44;22.60;99.90
22968;DHT22;11650;48.106;-1.696;2023-06-22T09:01:09;22.80;99.90
22968;DHT22;11650;48.106;-1.696;2023-06-22T09:03:35;22.80;99.90
22968;DHT22;11650;48.106;-1.696;2023-06-22T09:06:03;22.70;99.90
22968;DHT22;11650;48.106;-1.696;2023-06-22T09:08:28;22.70;99.90
22968;DHT22;11650;48.106;-1.696;2023-06-22T09:10:54;23.00;99.90
22968;DHT22;11650;48.106;-1.696;2023-06-22T09:13:20;23.30;99.90
22968;DHT22;11650;48.106;-1.696;2023-06-22T09:15:46;22.90;99.90
22968;DHT22;11650;48.106;-1.696;2023-06-22T09:18:12;22.70;99.90
22968;DHT22;11650;48.106;-1.696;2023-06-22T09:20:38;22.70;99.90
22968;DHT22;11650;48.106;-1.696;2023-06-22T09:23:04;22.70;99.90
22968;DHT22;11650;48.106;-1.696;2023-06-22T09:25:29;23.10;99.90
22968;DHT22;11650;48.106;-1.696;2023-06-22T09:27:55;23.30;99.90
22968;DHT22;11650;48.106;-1.696;2023-06-22T09:30:21;23.50;99.90
22968;DHT22;11650;48.106;-1.696;2023-06-22T09:32:47;23.90;99.90
22968;DHT22;11650;48.106;-1.696;2023-06-22T09:35:12;24.00;99.90
22968;DHT22;11650;48.106;-1.696;2023-06-22T09:37:39;23.70;99.90
22968;DHT22;11650;48.106;-1.696;2023-06-22T09:40:06;23.30;99.90
22968;DHT22;11650;48.106;-1.696;2023-06-22T09:42:36;23.30;99.90
22968;DHT22;11650;48.106;-1.696;2023-06-22T09:45:02;23.30;99.90
22968;DHT22;11650;48.106;-1.696;2023-06-22T09:47:29;23.70;99.90
22968;DHT22;11650;48.106;-1.696;2023-06-22T09:49:54;24.20;99.90
22968;DHT22;11650;48.106;-1.696;2023-06-22T09:52:21;24.20;99.90
22968;DHT22;11650;48.106;-1.696;2023-06-22T09:54:47;24.20;99.90
22968;DHT22;11650;48.106;-1.696;2023-06-22T09:57:12;24.30;99.90
22968;DHT22;11650;48.106;-1.696;2023-06-22T09:59:38;24.60;99.90
22968;DHT22;11650;48.106;-1.696;2023-06-22T10:02:07;24.40;99.90
22968;DHT22;11650;48.106;-1.696;2023-06-22T10:04:34;24.50;99.90
22968;DHT22;11650;48.106;-1.696;2023-06-22T10:06:59;24.60;99.90
22968;DHT22;11650;48.106;-1.696;2023-06-22T10:09:25;25.00;99.90
22968;DHT22;11650;48.106;-1.696;2023-06-22T10:11:50;24.90;99.90
22968;DHT22;11650;48.106;-1.696;2023-06-22T10:14:16;24.90;99.90
22968;DHT22;11650;48.106;-1.696;2023-06-22T10:16:42;25.20;99.90
22968;DHT22;11650;48.106;-1.696;2023-06-22T10:19:08;25.40;99.90
22968;DHT22;11650;48.106;-1.696;2023-06-22T10:21:33;25.60;99.90
22968;DHT22;11650;48.106;-1.696;2023-06-22T10:24:00;25.70;99.90
22968;DHT22;11650;48.106;-1.696;2023-06-22T10:26:34;25.90;99.90
22968;DHT22;11650;48.106;-1.696;2023-06-22T10:29:01;25.70;99.90
22968;DHT22;11650;48.106;-1.696;2023-06-22T10:31:27;25.60;99.90
22968;DHT22;11650;48.106;-1.696;2023-06-22T10:33:54;25.30;99.90
22968;DHT22;11650;48.106;-1.696;2023-06-22T10:36:20;25.50;99.90
22968;DHT22;11650;48.106;-1.696;2023-06-22T10:38:46;25.80;99.90
22968;DHT22;11650;48.106;-1.696;2023-06-22T10:41:13;25.60;99.90
22968;DHT22;11650;48.106;-1.696;2023-06-22T10:43:39;25.50;99.90
22968;DHT22;11650;48.106;-1.696;2023-06-22T10:46:04;25.90;99.90
22968;DHT22;11650;48.106;-1.696;2023-06-22T10:48:30;26.20;99.90
22968;DHT22;11650;48.106;-1.696;2023-06-22T10:50:55;25.90;99.90
22968;DHT22;11650;48.106;-1.696;2023-06-22T10:53:21;25.70;99.90
22968;DHT22;11650;48.106;-1.696;2023-06-22T10:55:47;25.60;99.90
22968;DHT22;11650;48.106;-1.696;2023-06-22T10:58:13;26.20;99.90
22968;DHT22;11650;48.106;-1.696;2023-06-22T11:00:38;26.20;99.90
22968;DHT22;11650;48.106;-1.696;2023-06-22T11:03:04;26.30;99.90
22968;DHT22;11650;48.106;-1.696;2023-06-22T11:05:30;26.60;99.90
22968;DHT22;11650;48.106;-1.696;2023-06-22T11:07:55;26.50;99.90
22968;DHT22;11650;48.106;-1.696;2023-06-22T11:10:21;26.50;99.90
22968;DHT22;11650;48.106;-1.696;2023-06-22T11:12:47;26.30;99.90
22968;DHT22;11650;48.106;-1.696;2023-06-22T11:15:12;26.70;99.90
22968;DHT22;11650;48.106;-1.696;2023-06-22T11:17:38;26.60;99.90
22968;DHT22;11650;48.106;-1.696;2023-06-22T11:20:05;26.60;99.90
22968;DHT22;11650;48.106;-1.696;2023-06-22T11:22:40;27.10;99.90
22968;DHT22;11650;48.106;-1.696;2023-06-22T11:25:06;27.10;99.90
22968;DHT22;11650;48.106;-1.696;2023-06-22T11:27:32;26.50;99.90
22968;DHT22;11650;48.106;-1.696;2023-06-22T11:29:58;26.60;99.90
22968;DHT22;11650;48.106;-1.696;2023-06-22T11:32:23;27.10;99.90
22968;DHT22;11650;48.106;-1.696;2023-06-22T11:34:49;27.10;99.90
22968;DHT22;11650;48.106;-1.696;2023-06-22T11:37:15;27.10;99.90
22968;DHT22;11650;48.106;-1.696;2023-06-22T11:39:41;26.70;99.90
22968;DHT22;11650;48.106;-1.696;2023-06-22T11:42:07;27.50;99.90
22968;DHT22;11650;48.106;-1.696;2023-06-22T11:44:34;27.80;99.90
22968;DHT22;11650;48.106;-1.696;2023-06-22T11:47:00;28.10;99.90
22968;DHT22;11650;48.106;-1.696;2023-06-22T11:49:26;28.00;99.90
22968;DHT22;11650;48.106;-1.696;2023-06-22T11:51:52;28.00;99.90
22968;DHT22;11650;48.106;-1.696;2023-06-22T11:54:18;28.10;99.90
22968;DHT22;11650;48.106;-1.696;2023-06-22T11:56:44;27.90;99.90
22968;DHT22;11650;48.106;-1.696;2023-06-22T11:59:09;28.40;99.90
22968;DHT22;11650;48.106;-1.696;2023-06-22T12:01:35;28.50;99.90
22968;DHT22;11650;48.106;-1.696;2023-06-22T12:04:01;28.00;99.90
22968;DHT22;11650;48.106;-1.696;2023-06-22T12:06:26;27.10;99.90
22968;DHT22;11650;48.106;-1.696;2023-06-22T12:08:52;26.50;99.90
22968;DHT22;11650;48.106;-1.696;2023-06-22T12:11:18;26.60;99.90
22968;DHT22;11650;48.106;-1.696;2023-06-22T12:13:44;26.90;99.90
22968;DHT22;11650;48.106;-1.696;2023-06-22T12:16:09;27.30;99.90
22968;DHT22;11650;48.106;-1.696;2023-06-22T12:18:35;27.40;99.90
22968;DHT22;11650;48.106;-1.696;2023-06-22T12:21:00;27.10;99.90
22968;DHT22;11650;48.106;-1.696;2023-06-22T12:23:26;26.40;99.90
22968;DHT22;11650;48.106;-1.696;2023-06-22T12:25:52;26.30;99.90
22968;DHT22;11650;48.106;-1.696;2023-06-22T12:28:17;26.60;99.90
22968;DHT22;11650;48.106;-1.696;2023-06-22T12:30:43;26.80;99.90
22968;DHT22;11650;48.106;-1.696;2023-06-22T12:33:09;27.00;99.90
22968;DHT22;11650;48.106;-1.696;2023-06-22T12:35:34;27.10;99.90
22968;DHT22;11650;48.106;-1.696;2023-06-22T12:38:00;27.80;99.90
22968;DHT22;11650;48.106;-1.696;2023-06-22T12:40:26;28.20;99.90
22968;DHT22;11650;48.106;-1.696;2023-06-22T12:42:51;28.50;99.90
22968;DHT22;11650;48.106;-1.696;2023-06-22T12:45:17;28.30;99.90
22968;DHT22;11650;48.106;-1.696;2023-06-22T12:47:44;28.30;99.90
22968;DHT22;11650;48.106;-1.696;2023-06-22T12:50:09;28.30;99.90
22968;DHT22;11650;48.106;-1.696;2023-06-22T12:52:36;27.90;99.90
22968;DHT22;11650;48.106;-1.696;2023-06-22T12:55:04;28.00;99.90
22968;DHT22;11650;48.106;-1.696;2023-06-22T12:57:30;27.80;99.90
22968;DHT22;11650;48.106;-1.696;2023-06-22T12:59:55;28.30;99.90
22968;DHT22;11650;48.106;-1.696;2023-06-22T13:02:22;28.50;99.90
22968;DHT22;11650;48.106;-1.696;2023-06-22T13:04:48;28.50;99.90
22968;DHT22;11650;48.106;-1.696;2023-06-22T13:07:13;28.70;99.90
22968;DHT22;11650;48.106;-1.696;2023-06-22T13:09:39;29.10;99.90
22968;DHT22;11650;48.106;-1.696;2023-06-22T13:12:05;29.30;99.90
22968;DHT22;11650;48.106;-1.696;2023-06-22T13:14:30;29.80;99.90
22968;DHT22;11650;48.106;-1.696;2023-06-22T13:16:56;30.00;99.90
22968;DHT22;11650;48.106;-1.696;2023-06-22T13:19:22;29.10;99.90
22968;DHT22;11650;48.106;-1.696;2023-06-22T13:21:47;29.30;99.90
22968;DHT22;11650;48.106;-1.696;2023-06-22T13:24:13;29.40;99.90
22968;DHT22;11650;48.106;-1.696;2023-06-22T13:26:39;29.60;99.90
22968;DHT22;11650;48.106;-1.696;2023-06-22T13:29:04;29.30;99.90
22968;DHT22;11650;48.106;-1.696;2023-06-22T13:31:30;30.30;99.90
22968;DHT22;11650;48.106;-1.696;2023-06-22T13:33:55;30.60;99.90
22968;DHT22;11650;48.106;-1.696;2023-06-22T13:36:21;30.40;99.90
22968;DHT22;11650;48.106;-1.696;2023-06-22T13:38:48;31.10;99.90
22968;DHT22;11650;48.106;-1.696;2023-06-22T13:41:14;32.30;99.90
22968;DHT22;11650;48.106;-1.696;2023-06-22T13:43:40;31.60;99.90
22968;DHT22;11650;48.106;-1.696;2023-06-22T13:46:05;31.30;99.90
22968;DHT22;11650;48.106;-1.696;2023-06-22T13:48:31;30.50;99.90
22968;DHT22;11650;48.106;-1.696;2023-06-22T13:50:57;31.80;99.90
22968;DHT22;11650;48.106;-1.696;2023-06-22T13:53:24;31.80;99.90
22968;DHT22;11650;48.106;-1.696;2023-06-22T13:55:51;31.00;99.90
22968;DHT22;11650;48.106;-1.696;2023-06-22T13:58:17;31.70;99.90
22968;DHT22;11650;48.106;-1.696;2023-06-22T14:00:45;32.00;99.90
22968;DHT22;11650;48.106;-1.696;2023-06-22T14:03:10;31.60;99.90
22968;DHT22;11650;48.106;-1.696;2023-06-22T14:05:36;32.40;99.90
22968;DHT22;11650;48.106;-1.696;2023-06-22T14:08:02;32.60;99.90
22968;DHT22;11650;48.106;-1.696;2023-06-22T14:10:27;32.30;99.90
22968;DHT22;11650;48.106;-1.696;2023-06-22T14:12:53;33.00;99.90
22968;DHT22;11650;48.106;-1.696;2023-06-22T14:15:19;33.60;99.90
22968;DHT22;11650;48.106;-1.696;2023-06-22T14:17:44;32.70;99.90
22968;DHT22;11650;48.106;-1.696;2023-06-22T14:20:10;32.00;99.90
22968;DHT22;11650;48.106;-1.696;2023-06-22T14:22:36;32.10;99.90
22968;DHT22;11650;48.106;-1.696;2023-06-22T14:25:02;32.20;99.90
22968;DHT22;11650;48.106;-1.696;2023-06-22T14:27:28;32.60;99.90
22968;DHT22;11650;48.106;-1.696;2023-06-22T14:29:53;32.50;99.90
22968;DHT22;11650;48.106;-1.696;2023-06-22T14:32:19;32.60;99.90
22968;DHT22;11650;48.106;-1.696;2023-06-22T14:34:45;32.80;99.90
22968;DHT22;11650;48.106;-1.696;2023-06-22T14:37:10;32.90;99.90
22968;DHT22;11650;48.106;-1.696;2023-06-22T14:39:36;33.90;99.90
22968;DHT22;11650;48.106;-1.696;2023-06-22T14:42:02;33.40;99.90
22968;DHT22;11650;48.106;-1.696;2023-06-22T14:44:29;32.70;99.90
22968;DHT22;11650;48.106;-1.696;2023-06-22T14:46:58;32.90;99.90
22968;DHT22;11650;48.106;-1.696;2023-06-22T14:49:23;33.40;99.90
22968;DHT22;11650;48.106;-1.696;2023-06-22T14:51:49;33.00;99.90
22968;DHT22;11650;48.106;-1.696;2023-06-22T14:54:15;32.90;99.90
22968;DHT22;11650;48.106;-1.696;2023-06-22T14:56:40;33.70;99.90
22968;DHT22;11650;48.106;-1.696;2023-06-22T14:59:06;33.40;99.90
22968;DHT22;11650;48.106;-1.696;2023-06-22T15:01:32;33.70;99.90
22968;DHT22;11650;48.106;-1.696;2023-06-22T15:03:58;35.10;99.90
22968;DHT22;11650;48.106;-1.696;2023-06-22T15:06:23;33.80;99.90
22968;DHT22;11650;48.106;-1.696;2023-06-22T15:08:49;33.80;99.90
22968;DHT22;11650;48.106;-1.696;2023-06-22T15:11:14;34.30;99.90
22968;DHT22;11650;48.106;-1.696;2023-06-22T15:13:41;35.20;99.90